Chur/Vaduz, Switzerland
Current Conditions -  °F | °C
As of 5:20 PM on Sunday 21 Dec 2014 (Local Time) from LSZS Reporting Station
Clear Clear  
Wind Chill: 27°   Ceiling: Unl
Heat Index: 27°   Visibility: 6mi
Dew Point: 12°   Wind: 3mph
Humidity: 55%   Direction: NA
Pressure: 30.36"   Gusts: NA
Location:  46.85°N, 9.53°E
Report Text: LSZS 211620Z VRB03KT CAVOK M03/M11 Q1028
Loading
Personal Weather Stations






























Interactive Weather Map New forecast layout! Learn more

10-Day Weather Forecast

Advertisements
Track Severe Weather on mobile